Time;durP1;ratioP1;P1;durP2;ratioP2;P2;SDS_P1;SDS_P2;PMS_P1;PMS_P2;Temp;Humidity;BMP_temperature;BMP_pressure;BME280_temperature;BME280_humidity;BME280_pressure;Samples;Min_cycle;Max_cycle;Signal;HPM_P1;HPM_P2
2023/05/18 00:00:31;;;;;;;0.20;0.20;;;7.10;99.90;;;;;;5028445;28;20427;-80
2023/05/18 00:03:02;;;;;;;3.80;0.52;;;7.10;99.90;;;;;;5027058;28;20432;-80
2023/05/18 00:05:32;;;;;;;0.30;0.30;;;7.10;99.90;;;;;;5025237;28;20524;-80
2023/05/18 00:08:00;;;;;;;0.60;0.60;;;7.10;99.90;;;;;;5021638;28;20428;-80
2023/05/18 00:10:27;;;;;;;0.98;0.47;;;7.10;99.90;;;;;;5023852;28;20917;-80
2023/05/18 00:12:56;;;;;;;0.47;0.47;;;7.10;99.90;;;;;;5029384;28;20763;-80
2023/05/18 00:15:26;;;;;;;0.45;0.45;;;7.10;99.90;;;;;;5025301;28;20520;-80
2023/05/18 00:17:53;;;;;;;9.10;0.38;;;7.10;99.90;;;;;;5040798;28;20432;-80
2023/05/18 00:20:20;;;;;;;1.77;0.50;;;7.00;99.90;;;;;;5033213;28;20483;-80
2023/05/18 00:22:49;;;;;;;0.22;0.22;;;7.00;99.90;;;;;;5051185;28;20437;-80
2023/05/18 00:25:16;;;;;;;5.50;1.17;;;7.00;99.90;;;;;;5042759;28;20856;-80
2023/05/18 00:27:48;;;;;;;0.50;0.38;;;7.00;99.90;;;;;;5037298;28;20434;-80
2023/05/18 00:30:15;;;;;;;0.30;0.20;;;7.00;99.90;;;;;;5029413;28;20881;-80
2023/05/18 00:32:41;;;;;;;0.93;0.57;;;7.00;99.90;;;;;;5048783;28;20440;-80
2023/05/18 00:35:08;;;;;;;0.50;0.50;;;7.00;99.90;;;;;;5032771;28;20741;-81
2023/05/18 00:37:35;;;;;;;0.47;0.47;;;6.90;99.90;;;;;;5024896;28;20527;-80
2023/05/18 00:40:05;;;;;;;0.30;0.30;;;6.90;99.90;;;;;;5018251;28;20866;-80
2023/05/18 00:42:32;;;;;;;0.20;0.20;;;6.90;99.90;;;;;;5022566;28;20441;-81
2023/05/18 00:44:59;;;;;;;4.25;0.57;;;6.90;99.90;;;;;;5020874;28;20599;-81
2023/05/18 00:47:26;;;;;;;1.70;0.60;;;6.80;99.90;;;;;;5026226;28;20510;-80
2023/05/18 00:49:53;;;;;;;0.77;0.68;;;6.80;99.90;;;;;;5033215;28;20775;-81
2023/05/18 00:52:28;;;;;;;0.65;0.50;;;6.80;99.90;;;;;;5030295;28;20437;-80
2023/05/18 00:54:57;;;;;;;0.50;0.50;;;6.60;99.90;;;;;;5025498;28;20799;-80
2023/05/18 00:57:24;;;;;;;0.90;0.50;;;6.50;1.00;;;;;;5016068;28;20437;-81
2023/05/18 00:59:56;;;;;;;0.30;0.30;;;6.50;1.00;;;;;;5021495;28;20818;-81
2023/05/18 01:02:23;;;;;;;3.10;1.08;;;6.50;1.00;;;;;;5023392;28;20443;-81
2023/05/18 01:04:52;;;;;;;0.30;0.30;;;6.50;1.00;;;;;;5013546;28;20927;-81
2023/05/18 01:07:25;;;;;;;0.30;0.30;;;6.50;1.00;;;;;;5019555;28;20438;-80
2023/05/18 01:09:55;;;;;;;0.40;0.40;;;6.50;1.00;;;;;;5027566;28;20438;-80
2023/05/18 01:12:31;;;;;;;0.40;0.40;;;6.50;1.00;;;;;;5026019;28;20438;-80
2023/05/18 01:15:22;;;;;;;0.52;0.52;;;6.40;1.00;;;;;;5023565;28;20443;-81
2023/05/18 01:18:03;;;;;;;0.50;0.50;;;6.40;1.00;;;;;;5022702;28;20437;-80
2023/05/18 01:20:32;;;;;;;0.35;0.35;;;6.40;1.00;;;;;;5014135;28;20447;-80
2023/05/18 01:23:21;;;;;;;0.43;0.43;;;6.40;1.00;;;;;;5011904;28;20644;-79
2023/05/18 01:25:52;;;;;;;0.30;0.30;;;6.40;1.00;;;;;;5027177;28;20956;-80
2023/05/18 01:28:32;;;;;;;0.60;0.60;;;6.30;1.00;;;;;;5027151;28;20870;-80
2023/05/18 01:30:59;;;;;;;0.28;0.28;;;6.20;1.00;;;;;;5024973;28;20443;-80
2023/05/18 01:33:25;;;;;;;0.60;0.60;;;6.10;1.00;;;;;;5023158;28;20450;-80
2023/05/18 01:35:52;;;;;;;0.30;0.30;;;6.10;1.00;;;;;;5029103;28;20481;-80
2023/05/18 01:38:22;;;;;;;0.90;0.50;;;6.10;1.00;;;;;;5010016;28;20443;-80
2023/05/18 01:41:02;;;;;;;2.50;0.40;;;6.00;1.00;;;;;;5024653;28;20435;-80
2023/05/18 01:43:34;;;;;;;1.20;0.50;;;6.10;1.00;;;;;;5031187;28;20431;-80
2023/05/18 01:46:10;;;;;;;0.90;0.90;;;6.10;1.00;;;;;;5023396;28;20442;-81
2023/05/18 01:48:47;;;;;;;1.10;0.50;;;6.10;1.00;;;;;;5023995;28;20441;-80
2023/05/18 01:51:18;;;;;;;4.33;0.47;;;6.00;1.00;;;;;;5024976;28;20433;-81
2023/05/18 01:53:53;;;;;;;0.75;0.47;;;6.00;1.00;;;;;;5020625;28;20500;-80
2023/05/18 01:56:21;;;;;;;0.32;0.32;;;6.00;1.00;;;;;;5015622;28;20446;-81
2023/05/18 01:58:48;;;;;;;0.50;0.50;;;5.90;1.00;;;;;;5019979;28;20840;-81
2023/05/18 02:01:18;;;;;;;0.75;0.70;;;6.00;1.00;;;;;;5009678;28;20998;-80
2023/05/18 02:03:45;;;;;;;0.45;0.38;;;5.90;1.00;;;;;;5019162;28;20430;-80
2023/05/18 02:06:12;;;;;;;0.60;0.43;;;5.90;1.00;;;;;;5024192;28;20437;-80
2023/05/18 02:08:39;;;;;;;0.30;0.30;;;5.90;1.00;;;;;;5022196;28;20448;-80
2023/05/18 02:11:06;;;;;;;0.43;0.30;;;5.80;1.00;;;;;;5019180;28;20497;-80
2023/05/18 02:13:33;;;;;;;2.10;0.80;;;5.80;48.50;;;;;;5022372;28;20734;-81
2023/05/18 02:16:02;;;;;;;0.80;0.80;;;5.80;57.70;;;;;;5012770;28;20894;-81
2023/05/18 02:18:35;;;;;;;0.30;0.30;;;5.70;55.00;;;;;;5020341;28;20444;-80
2023/05/18 02:21:03;;;;;;;0.10;0.10;;;5.70;99.90;;;;;;5012607;28;20477;-81
2023/05/18 02:23:31;;;;;;;0.45;0.45;;;5.70;59.70;;;;;;5026865;28;20434;-80
2023/05/18 02:25:57;;;;;;;0.13;0.13;;;5.70;97.40;;;;;;5012499;28;20945;-81
2023/05/18 02:28:24;;;;;;;0.45;0.45;;;5.70;99.90;;;;;;5009958;28;20431;-80
2023/05/18 02:30:51;;;;;;;0.30;0.30;;;5.70;99.90;;;;;;5019722;28;20447;-80
2023/05/18 02:33:18;;;;;;;0.95;0.80;;;5.70;99.90;;;;;;5029871;28;20801;-80
2023/05/18 02:35:45;;;;;;;0.60;0.50;;;5.70;99.90;;;;;;5014711;28;20439;-80
2023/05/18 02:38:12;;;;;;;0.60;0.50;;;5.60;99.90;;;;;;5024374;28;20450;-80
2023/05/18 02:40:38;;;;;;;0.38;0.38;;;5.60;99.90;;;;;;5025058;28;20518;-80
2023/05/18 02:43:05;;;;;;;0.40;0.40;;;5.60;99.90;;;;;;5019538;28;20463;-80
2023/05/18 02:45:32;;;;;;;0.20;0.20;;;5.50;99.90;;;;;;5036924;28;20515;-80
2023/05/18 02:47:59;;;;;;;0.40;0.40;;;5.50;99.90;;;;;;5032272;28;20500;-80
2023/05/18 02:50:25;;;;;;;0.40;0.40;;;5.50;99.90;;;;;;5047902;28;20525;-80
2023/05/18 02:52:52;;;;;;;0.80;0.60;;;5.50;99.90;;;;;;5035135;28;20521;-81
2023/05/18 02:55:19;;;;;;;0.40;0.40;;;5.60;99.90;;;;;;5021096;28;20485;-80
2023/05/18 02:57:47;;;;;;;1.40;0.90;;;5.60;99.90;;;;;;5016416;28;20442;-80
2023/05/18 03:00:15;;;;;;;0.30;0.30;;;5.60;99.90;;;;;;5023391;28;20930;-81
2023/05/18 03:02:43;;;;;;;0.38;0.38;;;5.60;99.90;;;;;;5025835;28;20438;-80
2023/05/18 03:05:10;;;;;;;0.60;0.60;;;5.60;99.90;;;;;;5030098;28;20427;-80
2023/05/18 03:07:36;;;;;;;0.40;0.20;;;5.50;99.90;;;;;;5025999;28;20438;-80
2023/05/18 03:10:03;;;;;;;0.70;0.70;;;5.50;99.90;;;;;;5029044;28;20493;-80
2023/05/18 03:12:30;;;;;;;0.35;0.35;;;5.50;99.90;;;;;;5022822;28;20524;-80
2023/05/18 03:14:57;;;;;;;3.30;0.60;;;5.50;99.90;;;;;;5027366;28;20879;-81
2023/05/18 03:17:25;;;;;;;0.70;0.70;;;5.60;99.90;;;;;;5024748;28;20436;-80
2023/05/18 03:19:51;;;;;;;0.20;0.20;;;5.60;99.90;;;;;;5024316;28;20822;-80
2023/05/18 03:22:18;;;;;;;2.80;0.40;;;5.70;94.40;;;;;;5028826;28;20945;-81
2023/05/18 03:24:50;;;;;;;1.10;0.30;;;5.60;99.90;;;;;;5024167;28;21100;-81
2023/05/18 03:27:17;;;;;;;0.40;0.40;;;5.60;99.90;;;;;;5029514;28;20438;-79
2023/05/18 03:29:44;;;;;;;6.50;1.20;;;5.60;99.90;;;;;;5024133;28;20849;-80
2023/05/18 03:32:11;;;;;;;0.38;0.38;;;5.60;99.90;;;;;;5024868;28;22133;-80
2023/05/18 03:34:37;;;;;;;0.40;0.30;;;5.60;99.90;;;;;;5024880;28;20484;-80
2023/05/18 03:37:05;;;;;;;3.10;0.47;;;5.60;99.90;;;;;;5034332;28;20455;-81
2023/05/18 03:39:32;;;;;;;0.63;0.63;;;5.70;99.90;;;;;;5029472;28;20513;-79
2023/05/18 03:41:59;;;;;;;1.35;1.00;;;5.70;99.90;;;;;;5035545;28;20484;-81
2023/05/18 03:44:29;;;;;;;0.70;0.70;;;5.60;99.90;;;;;;5025183;28;20523;-80
2023/05/18 03:46:56;;;;;;;0.30;0.30;;;5.60;99.90;;;;;;5018974;28;20438;-80
2023/05/18 03:49:23;;;;;;;0.85;0.75;;;5.60;99.90;;;;;;5030326;28;20473;-81
2023/05/18 03:51:49;;;;;;;0.30;0.30;;;5.60;99.90;;;;;;5026027;28;20526;-81
2023/05/18 03:54:16;;;;;;;0.63;0.63;;;5.60;99.90;;;;;;5026495;28;20437;-81
2023/05/18 03:56:43;;;;;;;0.65;0.65;;;5.50;99.90;;;;;;5021510;28;20463;-81
2023/05/18 03:59:09;;;;;;;2.20;0.30;;;5.50;99.90;;;;;;5018799;28;20439;-81
2023/05/18 04:01:36;;;;;;;1.40;0.60;;;5.50;99.90;;;;;;5028409;28;20419;-81
2023/05/18 04:04:03;;;;;;;0.20;0.20;;;5.40;99.90;;;;;;5026135;28;20493;-80
2023/05/18 04:06:30;;;;;;;0.50;0.50;;;5.40;99.90;;;;;;5014811;28;20791;-81
2023/05/18 04:09:03;;;;;;;0.90;0.60;;;5.40;99.90;;;;;;5023243;28;21186;-82
2023/05/18 04:11:30;;;;;;;0.63;0.63;;;5.40;99.90;;;;;;5020723;28;20443;-80
2023/05/18 04:13:59;;;;;;;1.80;0.95;;;5.40;1.00;;;;;;5016403;28;20441;-81
2023/05/18 04:16:27;;;;;;;0.40;0.40;;;5.40;1.00;;;;;;5027926;28;20533;-81
2023/05/18 04:18:54;;;;;;;1.02;0.60;;;5.50;1.00;;;;;;5016641;28;20530;-82
2023/05/18 04:21:21;;;;;;;1.80;0.60;;;5.60;1.00;;;;;;5026049;28;20431;-81
2023/05/18 04:23:48;;;;;;;0.43;0.30;;;5.60;99.90;;;;;;5023305;28;20477;-80
2023/05/18 04:26:18;;;;;;;0.40;0.40;;;5.70;99.90;;;;;;5027009;28;20465;-83
2023/05/18 04:28:46;;;;;;;14.50;0.70;;;5.80;99.90;;;;;;5018824;28;20441;-83
2023/05/18 04:31:16;;;;;;;2.40;0.65;;;6.00;99.90;;;;;;5026814;28;20529;-82
2023/05/18 04:33:46;;;;;;;1.30;0.73;;;6.00;45.80;;;;;;5023229;28;20801;-82
2023/05/18 04:36:13;;;;;;;0.93;0.88;;;6.20;1.00;;;;;;5022012;28;20997;-81
2023/05/18 04:38:40;;;;;;;0.30;0.30;;;6.30;2.40;;;;;;5019951;28;20431;-81
2023/05/18 04:41:09;;;;;;;4.60;0.50;;;6.70;1.00;;;;;;5023452;28;20466;-81
2023/05/18 04:43:40;;;;;;;0.70;0.70;;;7.10;1.00;;;;;;5028681;28;20431;-81
2023/05/18 04:46:07;;;;;;;0.90;0.90;;;7.60;99.90;;;;;;5027632;28;20985;-83
2023/05/18 04:48:34;;;;;;;4.50;0.40;;;8.00;99.90;;;;;;5035130;28;20509;-81
2023/05/18 04:51:03;;;;;;;0.40;0.40;;;8.50;99.90;;;;;;5026470;28;20782;-82
2023/05/18 04:53:32;;;;;;;0.43;0.43;;;8.90;99.90;;;;;;5010551;28;20460;-83
2023/05/18 04:56:01;;;;;;;0.40;0.40;;;9.20;99.90;;;;;;5017893;28;20435;-82
2023/05/18 04:58:29;;;;;;;2.47;0.43;;;9.70;99.90;;;;;;5026705;28;20984;-83
2023/05/18 05:00:56;;;;;;;0.70;0.70;;;10.10;99.90;;;;;;5025816;28;20485;-82
2023/05/18 05:03:23;;;;;;;1.15;0.50;;;10.20;99.90;;;;;;5012844;28;20431;-83
2023/05/18 05:05:50;;;;;;;2.77;0.70;;;10.30;99.90;;;;;;5019713;28;20915;-83
2023/05/18 05:08:19;;;;;;;0.73;0.73;;;10.60;99.90;;;;;;5025422;28;20435;-83
2023/05/18 05:10:46;;;;;;;1.10;0.80;;;10.80;99.90;;;;;;5027312;28;20562;-83
2023/05/18 05:13:13;;;;;;;1.90;0.98;;;11.20;99.90;;;;;;5027213;28;20913;-83
2023/05/18 05:15:40;;;;;;;2.40;0.60;;;11.50;99.90;;;;;;5012142;28;20446;-82
2023/05/18 05:18:06;;;;;;;0.50;0.50;;;11.80;99.90;;;;;;5024896;28;20513;-82
2023/05/18 05:20:33;;;;;;;1.40;0.80;;;12.00;99.90;;;;;;5021872;28;20428;-83
2023/05/18 05:23:05;;;;;;;2.70;0.60;;;12.20;99.90;;;;;;5017146;28;20439;-81
2023/05/18 05:25:32;;;;;;;0.23;0.23;;;12.30;99.90;;;;;;5027557;28;20434;-82
2023/05/18 05:27:59;;;;;;;2.60;0.75;;;12.20;99.90;;;;;;5027387;28;20944;-82
2023/05/18 05:30:33;;;;;;;0.60;0.60;;;12.20;99.90;;;;;;5024254;28;20434;-81
2023/05/18 05:33:00;;;;;;;0.73;0.38;;;12.40;99.90;;;;;;5013607;28;20440;-81
2023/05/18 05:35:27;;;;;;;1.00;0.40;;;12.60;99.90;;;;;;5018980;28;20775;-81
2023/05/18 05:37:57;;;;;;;1.10;0.70;;;12.70;99.90;;;;;;5043362;28;20437;-82
2023/05/18 05:40:24;;;;;;;1.70;0.45;;;12.80;99.90;;;;;;5027254;28;20575;-82
2023/05/18 05:42:53;;;;;;;0.45;0.45;;;13.00;99.90;;;;;;5042395;28;20398;-81
2023/05/18 05:45:29;;;;;;;4.20;0.55;;;13.20;99.90;;;;;;5027022;28;20910;-82
2023/05/18 05:47:56;;;;;;;1.15;0.77;;;13.40;99.90;;;;;;5024436;28;20435;-81
2023/05/18 05:50:23;;;;;;;1.08;0.50;;;13.70;99.90;;;;;;5025956;28;20437;-81
2023/05/18 05:52:49;;;;;;;0.30;0.30;;;13.70;99.90;;;;;;5008813;28;21048;-83
2023/05/18 05:55:16;;;;;;;0.30;0.30;;;13.60;99.90;;;;;;5016024;28;20447;-81
2023/05/18 05:57:43;;;;;;;0.65;0.65;;;13.70;99.90;;;;;;5014233;28;20856;-82
2023/05/18 06:00:11;;;;;;;3.70;0.70;;;13.40;99.90;;;;;;5014477;28;20890;-81
2023/05/18 06:02:38;;;;;;;0.50;0.30;;;13.70;99.90;;;;;;5020309;28;21007;-82
2023/05/18 06:05:06;;;;;;;0.30;0.30;;;13.70;99.90;;;;;;5027493;28;20504;-81
2023/05/18 06:07:34;;;;;;;0.17;0.17;;;13.70;99.90;;;;;;5020428;28;20438;-82
2023/05/18 06:10:03;;;;;;;0.40;0.40;;;13.80;99.90;;;;;;5023792;28;20523;-82
2023/05/18 06:12:30;;;;;;;1.10;0.60;;;13.90;99.90;;;;;;5022867;28;20830;-82
2023/05/18 06:14:57;;;;;;;0.73;0.47;;;14.30;99.90;;;;;;5015967;28;20540;-82
2023/05/18 06:17:27;;;;;;;0.80;0.40;;;14.80;99.90;;;;;;5028810;28;20500;-81
2023/05/18 06:19:54;;;;;;;0.60;0.60;;;14.80;99.90;;;;;;5031616;28;20435;-80
2023/05/18 06:22:21;;;;;;;0.63;0.63;;;14.90;99.90;;;;;;5047220;28;20512;-81
2023/05/18 06:24:48;;;;;;;0.40;0.40;;;15.10;99.90;;;;;;5027128;28;20470;-81
2023/05/18 06:27:15;;;;;;;0.80;0.50;;;15.30;99.90;;;;;;5026275;28;20452;-81
2023/05/18 06:29:42;;;;;;;3.60;1.00;;;15.30;99.90;;;;;;5016640;28;20556;-80
2023/05/18 06:32:09;;;;;;;0.32;0.32;;;15.80;99.90;;;;;;5026803;28;20529;-80
2023/05/18 06:34:39;;;;;;;1.00;0.50;;;15.70;99.90;;;;;;5030389;28;20521;-81
2023/05/18 06:37:06;;;;;;;0.73;0.45;;;15.90;99.90;;;;;;5041845;28;21214;-80
2023/05/18 06:39:32;;;;;;;0.82;0.52;;;16.00;99.90;;;;;;5030711;28;20414;-80
2023/05/18 06:41:59;;;;;;;0.55;0.50;;;16.00;99.90;;;;;;5027308;28;20434;-81
2023/05/18 06:44:29;;;;;;;1.00;0.32;;;16.20;99.90;;;;;;5012657;28;20502;-80
2023/05/18 06:46:56;;;;;;;1.38;0.85;;;15.80;99.90;;;;;;5022336;28;21021;-81
2023/05/18 06:49:22;;;;;;;0.20;0.20;;;15.90;99.90;;;;;;5029107;28;20443;-80
2023/05/18 06:51:49;;;;;;;3.75;0.38;;;15.90;99.90;;;;;;5016925;28;20519;-81
2023/05/18 06:54:16;;;;;;;1.90;0.65;;;16.40;99.90;;;;;;5026832;28;20442;-81
2023/05/18 06:56:43;;;;;;;0.30;0.30;;;16.70;99.90;;;;;;5029246;28;20473;-81
2023/05/18 06:59:10;;;;;;;0.22;0.22;;;17.00;99.90;;;;;;5011425;28;20502;-81
2023/05/18 07:01:37;;;;;;;0.87;0.50;;;17.00;99.90;;;;;;5012409;28;20436;-75
2023/05/18 07:04:04;;;;;;;0.60;0.60;;;16.90;99.90;;;;;;5027431;28;20434;-75
2023/05/18 07:06:31;;;;;;;0.35;0.35;;;16.90;99.90;;;;;;5046235;28;20793;-76
2023/05/18 07:08:58;;;;;;;1.10;0.30;;;16.50;99.90;;;;;;5046577;28;20431;-76
2023/05/18 07:11:24;;;;;;;0.60;0.60;;;16.10;99.90;;;;;;5043305;28;20438;-75
2023/05/18 07:13:55;;;;;;;6.18;1.00;;;15.60;99.90;;;;;;5031026;28;20526;-75
2023/05/18 07:16:21;;;;;;;4.97;0.70;;;16.20;99.90;;;;;;5021641;28;20507;-74
2023/05/18 07:18:48;;;;;;;0.60;0.60;;;16.50;99.90;;;;;;5028060;28;20484;-75
2023/05/18 07:21:15;;;;;;;3.40;1.00;;;16.90;99.90;;;;;;5029631;28;20510;-76
2023/05/18 07:23:45;;;;;;;0.40;0.40;;;16.20;99.90;;;;;;5029638;28;20525;-77
2023/05/18 07:26:11;;;;;;;3.30;0.50;;;16.50;99.90;;;;;;5029611;28;20461;-76
2023/05/18 07:28:38;;;;;;;1.23;0.60;;;16.90;99.90;;;;;;5029542;28;20517;-77
2023/05/18 07:31:05;;;;;;;0.50;0.50;;;17.50;99.90;;;;;;5027108;28;20471;-76
2023/05/18 07:33:32;;;;;;;0.50;0.43;;;17.50;99.90;;;;;;5043284;28;20466;-76
2023/05/18 07:35:58;;;;;;;0.60;0.60;;;17.80;99.90;;;;;;5020798;28;20547;-75
2023/05/18 07:38:27;;;;;;;0.35;0.35;;;17.80;99.90;;;;;;5030514;28;20973;-76
2023/05/18 07:40:53;;;;;;;1.75;0.40;;;17.60;99.90;;;;;;5029491;28;20453;-75
2023/05/18 07:43:22;;;;;;;0.43;0.43;;;17.50;99.90;;;;;;5025524;28;20530;-76
2023/05/18 07:45:49;;;;;;;1.80;0.40;;;16.90;99.90;;;;;;5016737;28;20425;-75
2023/05/18 07:48:16;;;;;;;1.90;0.50;;;17.00;99.90;;;;;;5010203;28;20437;-75
2023/05/18 07:50:43;;;;;;;0.50;0.50;;;17.20;99.90;;;;;;5028886;28;20518;-76
2023/05/18 07:53:12;;;;;;;0.47;0.47;;;17.50;99.90;;;;;;5029233;28;20441;-75
2023/05/18 07:55:41;;;;;;;1.20;0.60;;;17.40;99.90;;;;;;5030309;28;20513;-76
2023/05/18 07:58:08;;;;;;;0.30;0.30;;;17.40;99.90;;;;;;5029236;28;20522;-76
2023/05/18 08:00:35;;;;;;;0.50;0.50;;;17.20;99.90;;;;;;5028918;28;20798;-76
2023/05/18 08:03:02;;;;;;;2.80;0.60;;;16.90;99.90;;;;;;5027981;28;20969;-77
2023/05/18 08:05:29;;;;;;;0.50;0.47;;;17.00;99.90;;;;;;5028646;28;20849;-77
2023/05/18 08:07:56;;;;;;;0.70;0.70;;;17.60;99.90;;;;;;5030121;28;20477;-77
2023/05/18 08:10:23;;;;;;;0.25;0.25;;;17.90;99.90;;;;;;5029208;28;20431;-77
2023/05/18 08:12:52;;;;;;;1.10;0.47;;;18.00;99.90;;;;;;5028919;28;20431;-77
2023/05/18 08:15:19;;;;;;;0.40;0.40;;;18.30;99.90;;;;;;5025811;28;20832;-77
2023/05/18 08:17:46;;;;;;;2.42;0.60;;;18.50;99.90;;;;;;5028956;28;20449;-77
2023/05/18 08:20:13;;;;;;;1.10;0.30;;;18.40;99.90;;;;;;5028587;28;20496;-76
2023/05/18 08:22:40;;;;;;;0.30;0.30;;;18.60;99.90;;;;;;5028792;28;20430;-76
2023/05/18 08:25:20;;;;;;;1.30;0.60;;;18.50;99.90;;;;;;5029439;28;20419;-76
2023/05/18 08:27:46;;;;;;;1.70;0.32;;;18.70;99.90;;;;;;5021729;28;20975;-76
2023/05/18 08:30:20;;;;;;;1.15;0.30;;;18.20;99.90;;;;;;5024278;28;20526;-77
2023/05/18 08:32:50;;;;;;;0.43;0.40;;;18.10;99.90;;;;;;5031611;28;20456;-77
2023/05/18 08:35:17;;;;;;;0.60;0.60;;;18.10;99.90;;;;;;5039462;28;20515;-76
2023/05/18 08:37:48;;;;;;;0.65;0.40;;;17.40;99.90;;;;;;5028933;28;20435;-77
2023/05/18 08:40:16;;;;;;;0.40;0.40;;;17.50;99.90;;;;;;5020182;28;20440;-77
2023/05/18 08:43:26;;;;;;;1.92;0.80;;;17.50;99.90;;;;;;5020836;28;20431;-76
2023/05/18 08:46:09;;;;;;;1.58;0.63;;;17.50;99.90;;;;;;5026827;28;20462;-76
2023/05/18 08:48:36;;;;;;;1.38;0.55;;;17.10;99.90;;;;;;5018639;28;20432;-77
2023/05/18 08:51:06;;;;;;;0.60;0.60;;;17.50;99.90;;;;;;5029600;28;20470;-76
2023/05/18 08:53:33;;;;;;;1.05;0.40;;;18.00;99.90;;;;;;5028628;28;20477;-76
2023/05/18 08:56:01;;;;;;;0.60;0.60;;;17.70;99.90;;;;;;5024724;28;20485;-76
2023/05/18 08:58:46;;;;;;;0.77;0.47;;;17.60;99.90;;;;;;5030666;28;20427;-77
2023/05/18 09:01:13;;;;;;;0.30;0.30;;;17.80;99.90;;;;;;5026863;28;20431;-76
2023/05/18 09:03:41;;;;;;;1.58;0.50;;;18.70;99.90;;;;;;5029080;28;20430;-77
2023/05/18 09:06:09;;;;;;;0.73;0.47;;;18.80;99.90;;;;;;5027745;28;20458;-76
2023/05/18 09:08:36;;;;;;;1.80;0.57;;;19.10;99.90;;;;;;5025726;28;20423;-76
2023/05/18 09:11:04;;;;;;;1.80;0.55;;;18.50;99.90;;;;;;5039168;28;20446;-76
2023/05/18 09:13:33;;;;;;;0.50;0.40;;;19.00;99.90;;;;;;5008015;28;20498;-76
2023/05/18 09:16:00;;;;;;;1.73;0.40;;;19.10;99.90;;;;;;5009125;28;20460;-76
2023/05/18 09:18:30;;;;;;;0.95;0.55;;;19.30;99.90;;;;;;5007613;28;20464;-77
2023/05/18 09:20:57;;;;;;;0.40;0.40;;;18.80;99.90;;;;;;5020202;28;20554;-77
2023/05/18 09:23:24;;;;;;;2.40;0.63;;;18.80;99.90;;;;;;5027392;28;20454;-77
2023/05/18 09:25:54;;;;;;;0.70;0.70;;;18.30;99.90;;;;;;5025924;28;20435;-76
2023/05/18 09:28:38;;;;;;;0.40;0.40;;;18.60;99.90;;;;;;5027077;28;20469;-77
2023/05/18 09:31:07;;;;;;;0.50;0.30;;;19.20;99.90;;;;;;5029021;28;20773;-75
2023/05/18 09:33:36;;;;;;;0.70;0.60;;;19.40;99.90;;;;;;5028613;28;20446;-76
2023/05/18 09:36:05;;;;;;;0.80;0.80;;;19.50;99.90;;;;;;5026985;28;20481;-75
2023/05/18 09:38:42;;;;;;;0.93;0.50;;;19.80;99.90;;;;;;5027249;28;20517;-76
2023/05/18 09:41:11;;;;;;;1.35;0.80;;;20.10;99.90;;;;;;5008689;28;20440;-75
2023/05/18 09:43:40;;;;;;;1.50;0.70;;;20.30;99.90;;;;;;5008699;28;20494;-77
2023/05/18 09:46:07;;;;;;;0.50;0.50;;;20.40;99.90;;;;;;5023267;28;20436;-76
2023/05/18 09:48:45;;;;;;;1.33;0.67;;;19.40;99.90;;;;;;5023959;28;20434;-77
2023/05/18 09:51:15;;;;;;;0.75;0.30;;;18.60;99.90;;;;;;5008607;28;20631;-77
2023/05/18 09:54:04;;;;;;;5.25;0.45;;;18.50;99.90;;;;;;5008666;28;20528;-77
2023/05/18 09:56:35;;;;;;;1.15;0.40;;;18.50;99.90;;;;;;5023312;28;20461;-76
2023/05/18 09:59:13;;;;;;;1.60;0.50;;;18.70;99.90;;;;;;5027520;28;20897;-77
2023/05/18 10:02:00;;;;;;;1.90;0.50;;;19.10;99.90;;;;;;5026951;28;20434;-77
2023/05/18 10:04:43;;;;;;;0.83;0.40;;;19.00;99.90;;;;;;5026994;28;20458;-77
2023/05/18 10:07:11;;;;;;;0.50;0.50;;;19.50;99.90;;;;;;5026978;28;20989;-74
2023/05/18 10:09:42;;;;;;;0.60;0.50;;;19.70;99.90;;;;;;5026983;28;20449;-75
2023/05/18 10:12:21;;;;;;;1.90;0.55;;;19.60;99.90;;;;;;5025981;28;20499;-75
2023/05/18 10:14:48;;;;;;;0.40;0.40;;;19.70;99.90;;;;;;5026732;28;20462;-76
2023/05/18 10:17:16;;;;;;;0.55;0.55;;;19.90;99.90;;;;;;5026667;28;20439;-76
2023/05/18 10:19:44;;;;;;;1.92;0.85;;;20.20;99.90;;;;;;5027976;28;20791;-76
2023/05/18 10:22:14;;;;;;;1.20;0.50;;;20.50;99.90;;;;;;5026838;28;20437;-76
2023/05/18 10:24:48;;;;;;;1.63;0.90;;;20.10;99.90;;;;;;5028327;28;20462;-76
2023/05/18 10:27:18;;;;;;;1.50;0.50;;;19.90;99.90;;;;;;5024455;28;20435;-76
2023/05/18 10:29:51;;;;;;;1.90;0.60;;;20.00;99.90;;;;;;5026574;28;20430;-76
2023/05/18 10:32:21;;;;;;;1.80;0.75;;;19.70;99.90;;;;;;5027893;28;20525;-76
2023/05/18 10:34:50;;;;;;;1.38;0.40;;;19.50;99.90;;;;;;5025590;28;20518;-76
2023/05/18 10:37:20;;;;;;;0.70;0.50;;;19.60;99.90;;;;;;5028295;28;20462;-77
2023/05/18 10:39:53;;;;;;;0.28;0.28;;;19.80;99.90;;;;;;5027761;28;20435;-76
2023/05/18 10:42:21;;;;;;;3.03;0.63;;;20.10;99.90;;;;;;5026780;28;20419;-76
2023/05/18 10:44:51;;;;;;;1.55;0.50;;;20.00;99.90;;;;;;5007129;28;20447;-77
2023/05/18 10:47:18;;;;;;;0.55;0.55;;;19.50;99.90;;;;;;5007989;28;20437;-76
2023/05/18 10:49:47;;;;;;;2.00;0.60;;;19.80;99.90;;;;;;5008072;28;20436;-75
2023/05/18 10:52:16;;;;;;;3.00;1.10;;;20.30;99.90;;;;;;5007639;28;20472;-75
2023/05/18 10:54:44;;;;;;;0.70;0.70;;;20.90;99.90;;;;;;5007699;28;20950;-77
2023/05/18 10:57:14;;;;;;;0.30;0.30;;;21.00;99.90;;;;;;5011431;28;20500;-76
2023/05/18 10:59:45;;;;;;;0.70;0.50;;;21.60;99.90;;;;;;5030775;28;20486;-76
2023/05/18 11:02:17;;;;;;;0.68;0.60;;;21.50;99.90;;;;;;5022503;28;20643;-77
2023/05/18 11:04:48;;;;;;;0.90;0.60;;;21.20;99.90;;;;;;5018275;28;20519;-76
2023/05/18 11:07:19;;;;;;;0.50;0.50;;;21.50;99.90;;;;;;5019379;28;20861;-77
2023/05/18 11:09:50;;;;;;;2.20;0.70;;;20.80;99.90;;;;;;5025997;28;20508;-76
2023/05/18 11:12:22;;;;;;;2.90;0.70;;;20.40;99.90;;;;;;5035582;28;20571;-77
2023/05/18 11:14:53;;;;;;;0.60;0.60;;;19.90;99.90;;;;;;5016122;28;20523;-77
2023/05/18 11:17:24;;;;;;;0.43;0.43;;;19.40;99.90;;;;;;5027210;28;20447;-76
2023/05/18 11:20:12;;;;;;;1.15;0.57;;;19.00;99.90;;;;;;5021510;28;20439;-76
2023/05/18 11:22:57;;;;;;;1.40;0.73;;;18.70;99.90;;;;;;5010750;28;20494;-76
2023/05/18 11:25:33;;;;;;;0.60;0.50;;;19.50;99.90;;;;;;5009351;28;20792;-76
2023/05/18 11:28:05;;;;;;;0.80;0.30;;;19.60;99.90;;;;;;5018683;28;20435;-76
2023/05/18 11:30:32;;;;;;;0.60;0.38;;;19.60;99.90;;;;;;5028064;28;20996;-77
2023/05/18 11:33:14;;;;;;;1.73;0.63;;;19.70;99.90;;;;;;5029070;28;20452;-77
2023/05/18 11:36:05;;;;;;;1.30;0.88;;;20.00;99.90;;;;;;5045261;28;21143;-77
2023/05/18 11:38:49;;;;;;;1.60;0.70;;;20.40;99.90;;;;;;5030588;28;20467;-77
2023/05/18 11:41:37;;;;;;;0.90;0.60;;;20.80;99.90;;;;;;5045462;28;20561;-75
2023/05/18 11:44:15;;;;;;;2.70;0.70;;;19.60;99.90;;;;;;5030106;28;20938;-76
2023/05/18 11:46:55;;;;;;;1.00;0.40;;;20.10;99.90;;;;;;5031929;28;20514;-76
2023/05/18 11:49:29;;;;;;;0.60;0.60;;;20.20;99.90;;;;;;5024377;28;20518;-76
2023/05/18 11:52:03;;;;;;;0.30;0.30;;;20.90;99.90;;;;;;5018644;28;20922;-76
2023/05/18 11:54:39;;;;;;;0.55;0.50;;;22.00;99.90;;;;;;5024429;28;20983;-77
2023/05/18 11:57:07;;;;;;;3.10;1.15;;;22.40;99.90;;;;;;5028839;28;20431;-78
2023/05/18 11:59:38;;;;;;;0.90;0.82;;;21.80;99.90;;;;;;5022092;28;20437;-78
2023/05/18 12:02:23;;;;;;;2.10;0.60;;;20.90;99.90;;;;;;5019691;28;20470;-78
2023/05/18 12:04:55;;;;;;;0.50;0.50;;;20.50;99.90;;;;;;5027300;28;20493;-76
2023/05/18 12:07:27;;;;;;;0.35;0.35;;;20.90;99.90;;;;;;5011125;28;20479;-77
2023/05/18 12:09:58;;;;;;;0.32;0.32;;;21.20;99.90;;;;;;5025171;28;20438;-77
2023/05/18 12:12:26;;;;;;;0.70;0.50;;;21.30;99.90;;;;;;5014600;28;20434;-77
2023/05/18 12:15:04;;;;;;;2.47;0.85;;;20.90;99.90;;;;;;5029302;28;20441;-77
2023/05/18 12:17:40;;;;;;;0.80;0.55;;;21.20;99.90;;;;;;5029728;28;20443;-77
2023/05/18 12:20:12;;;;;;;1.13;0.80;;;20.50;99.90;;;;;;5031319;28;20455;-78
2023/05/18 12:22:45;;;;;;;0.63;0.63;;;20.00;99.90;;;;;;5021682;28;20425;-76
2023/05/18 12:25:13;;;;;;;0.30;0.30;;;20.10;99.90;;;;;;5035003;28;20451;-77
2023/05/18 12:27:46;;;;;;;0.75;0.70;;;21.00;99.90;;;;;;5038507;28;20523;-76
2023/05/18 12:30:22;;;;;;;2.20;0.60;;;20.50;99.90;;;;;;5029372;28;20867;-76
2023/05/18 12:32:55;;;;;;;0.95;0.50;;;21.60;99.90;;;;;;5028553;28;20510;-76
2023/05/18 12:35:26;;;;;;;0.40;0.40;;;22.30;99.90;;;;;;5027731;28;20746;-76
2023/05/18 12:38:00;;;;;;;0.70;0.50;;;21.70;99.90;;;;;;5027985;28;20419;-77
2023/05/18 12:40:43;;;;;;;0.70;0.70;;;20.80;99.90;;;;;;5009636;28;20441;-78
2023/05/18 12:43:10;;;;;;;8.10;0.60;;;20.00;99.90;;;;;;5027676;28;20430;-77
2023/05/18 12:45:39;;;;;;;0.47;0.47;;;20.50;99.90;;;;;;5027600;28;20438;-77
2023/05/18 12:48:08;;;;;;;0.43;0.43;;;21.00;99.90;;;;;;5028703;28;20419;-77
2023/05/18 12:50:45;;;;;;;0.70;0.70;;;21.50;99.90;;;;;;5027948;28;20439;-77
2023/05/18 12:53:12;;;;;;;0.80;0.73;;;21.70;99.90;;;;;;5033573;28;20472;-77
2023/05/18 12:55:39;;;;;;;0.63;0.63;;;22.70;99.90;;;;;;5027299;28;20445;-78
2023/05/18 12:58:15;;;;;;;1.80;0.45;;;21.70;99.90;;;;;;5030161;28;20496;-77
2023/05/18 13:00:48;;;;;;;1.10;0.70;;;20.50;99.90;;;;;;5008596;28;20441;-76
2023/05/18 13:03:17;;;;;;;2.22;0.45;;;20.00;99.90;;;;;;5017337;28;20781;-76
2023/05/18 13:06:00;;;;;;;1.10;0.80;;;20.50;99.90;;;;;;5019572;28;20488;-76